createdAt,value
2018-12-22T05:01:20.610Z,95.40
2018-12-22T05:03:43.213Z,95.20
2018-12-22T05:06:05.806Z,95.00
2018-12-22T05:08:28.413Z,94.80
2018-12-22T05:10:51.026Z,94.70
2018-12-22T05:13:13.620Z,94.40
2018-12-22T06:01:55.337Z,90.30
2018-12-22T06:04:18.156Z,89.60
2018-12-22T06:06:40.744Z,89.40
2018-12-22T06:09:05.412Z,88.40
2018-12-22T06:11:28.016Z,87.10
2018-12-22T06:13:50.613Z,86.50
2018-12-22T07:05:29.274Z,84.70
2018-12-22T07:07:51.948Z,84.40
2018-12-22T07:10:14.575Z,84.70
2018-12-22T08:01:50.280Z,87.00
2018-12-22T08:04:12.862Z,88.10
2018-12-22T08:06:35.548Z,88.30
2018-12-22T08:09:01.851Z,89.00
2018-12-22T08:11:26.057Z,89.30
2018-12-22T08:13:48.605Z,89.80
2018-12-22T09:02:27.202Z,88.30
2018-12-22T09:04:49.782Z,87.90
2018-12-22T09:07:12.489Z,87.60
2018-12-22T09:09:35.087Z,87.60
2018-12-22T09:11:57.686Z,88.10
2018-12-22T09:14:20.283Z,88.70
2018-12-22T10:00:17.335Z,93.80
2018-12-22T10:02:40.046Z,93.80
2018-12-22T10:05:03.144Z,94.00
2018-12-22T10:07:25.876Z,94.00
2018-12-22T10:09:48.468Z,94.30
2018-12-22T10:12:11.068Z,94.40
2018-12-22T10:14:33.677Z,94.30
2018-12-22T11:00:19.650Z,92.30
2018-12-22T11:02:42.256Z,92.70
2018-12-22T11:05:07.642Z,92.60
2018-12-22T11:07:30.296Z,92.70
2018-12-22T11:09:52.984Z,92.50
2018-12-22T11:12:15.624Z,92.50
2018-12-22T11:14:38.301Z,92.70
2018-12-22T12:00:25.271Z,90.00
2018-12-22T12:02:47.900Z,90.00
2018-12-22T12:05:10.701Z,90.00
2018-12-22T12:10:34.498Z,90.40
2018-12-22T12:12:57.213Z,91.00
2018-12-22T13:04:38.693Z,92.40
2018-12-22T13:07:01.289Z,92.20
2018-12-22T13:09:23.892Z,92.30
2018-12-22T13:11:47.301Z,92.40
2018-12-22T13:14:20.386Z,92.40
2018-12-22T14:00:17.350Z,92.40
2018-12-22T14:02:40.989Z,92.40
2018-12-22T14:05:04.333Z,92.60
2018-12-22T14:07:28.045Z,92.30
2018-12-22T14:09:50.618Z,92.30
2018-12-22T14:12:14.221Z,92.50
2018-12-22T14:14:38.531Z,92.30
2018-12-22T14:38:46.098Z,91.00
2018-12-22T14:42:11.945Z,91.40
2018-12-22T14:44:34.526Z,91.30
2018-12-22T14:46:57.118Z,91.60
2018-12-22T14:49:19.726Z,91.70
2018-12-22T14:51:42.334Z,91.70
2018-12-22T14:54:05.077Z,91.80
2018-12-22T14:56:36.417Z,92.00
2018-12-22T14:58:59.003Z,92.10
2018-12-22T15:01:21.636Z,92.30
2018-12-22T15:03:44.518Z,92.30
2018-12-22T15:06:07.353Z,92.20
2018-12-22T15:08:30.004Z,92.40
2018-12-22T15:10:52.678Z,92.50
2018-12-22T15:13:15.384Z,92.40
2018-12-22T16:02:21.196Z,92.90
2018-12-22T16:04:44.487Z,93.10
2018-12-22T16:07:07.641Z,93.30
2018-12-22T16:09:30.933Z,93.20
2018-12-22T16:11:54.237Z,93.30
2018-12-22T16:14:17.086Z,93.30
2018-12-22T17:02:52.680Z,96.20
2018-12-22T17:05:15.625Z,96.20
2018-12-22T17:07:38.214Z,96.00
2018-12-22T18:02:09.353Z,96.10
2018-12-22T18:04:44.169Z,96.10
2018-12-22T18:07:23.909Z,96.20
2018-12-22T18:09:46.661Z,96.20
2018-12-22T18:12:09.480Z,96.20
2018-12-22T18:14:32.556Z,96.40
2018-12-22T19:00:18.902Z,95.30
2018-12-22T19:02:41.587Z,95.20
2018-12-22T19:05:06.177Z,95.10
2018-12-22T19:07:28.769Z,94.70
2018-12-22T19:09:51.381Z,94.90
2018-12-22T19:12:17.202Z,94.70
2018-12-22T19:14:55.740Z,94.40
2018-12-22T20:03:17.947Z,92.60
2018-12-22T20:05:44.103Z,92.60
2018-12-22T20:08:06.717Z,92.70
2018-12-22T20:10:29.330Z,92.90
2018-12-22T20:12:54.976Z,92.90
2018-12-22T21:07:41.629Z,92.40
2018-12-22T21:10:04.866Z,92.30
2018-12-22T21:12:27.971Z,92.40
